JST117 WADD-YPPH
Flight info
| Callsign | JST117 |
|---|---|
| Flight time | N/A |
| Altitude | 33000 |
| Route | LIPRA G578 EGATU L514 MUNNI/N0461F340 L514 AVPAL Q38 JULIM |
| Aircraft | A21N/M-SDE2E3FGHIRWXY/LB1 |
Departure
| Time | 2026-04-30 12:41 |
|---|---|
| Airport | Denpasar I Gusti Ngurah Rai International Airport (WADD) |
Arrival
| Time | N/A |
|---|---|
| Airport | Perth International Airport (YPPH) |
| Time | Latitude | Longitude | Altitude | Speed | Heading |
|---|---|---|---|---|---|
| 2026-04-30 12:31 | -8.74560 | 115.16472 | 31 ft | 0 kts | 358° |
| 2026-04-30 12:34 | -8.74566 | 115.16472 | 31 ft | 1 kts | 354° |
| 2026-04-30 12:35 | -8.74578 | 115.16474 | 35 ft | 2 kts | 349° |
| 2026-04-30 12:35 | -8.74592 | 115.16477 | 30 ft | 2 kts | 345° |
| 2026-04-30 12:35 | -8.74607 | 115.16481 | 31 ft | 2 kts | 339° |
| 2026-04-30 12:35 | -8.74621 | 115.16486 | 30 ft | 2 kts | 337° |
| 2026-04-30 12:36 | -8.74640 | 115.16495 | 30 ft | 4 kts | 338° |
| 2026-04-30 12:36 | -8.74657 | 115.16501 | 29 ft | 2 kts | 326° |
| 2026-04-30 12:36 | -8.74669 | 115.16510 | 28 ft | 2 kts | 310° |
| 2026-04-30 12:36 | -8.74678 | 115.16521 | 32 ft | 2 kts | 297° |
| 2026-04-30 12:37 | -8.74684 | 115.16535 | 29 ft | 2 kts | 284° |
| 2026-04-30 12:37 | -8.74687 | 115.16550 | 31 ft | 2 kts | 268° |
| 2026-04-30 12:37 | -8.74687 | 115.16554 | 32 ft | 0 kts | 268° |
| 2026-04-30 12:38 | -8.74687 | 115.16547 | 31 ft | 3 kts | 268° |
| 2026-04-30 12:38 | -8.74689 | 115.16515 | 30 ft | 6 kts | 268° |
| 2026-04-30 12:38 | -8.74691 | 115.16457 | 33 ft | 11 kts | 268° |
| 2026-04-30 12:38 | -8.74694 | 115.16367 | 33 ft | 14 kts | 268° |
| 2026-04-30 12:39 | -8.74699 | 115.16253 | 33 ft | 19 kts | 268° |
| 2026-04-30 12:39 | -8.74706 | 115.16099 | 33 ft | 24 kts | 267° |
| 2026-04-30 12:39 | -8.74713 | 115.15920 | 33 ft | 27 kts | 268° |
| 2026-04-30 12:39 | -8.74720 | 115.15728 | 33 ft | 28 kts | 267° |
| 2026-04-30 12:40 | -8.74728 | 115.15528 | 32 ft | 26 kts | 267° |
| 2026-04-30 12:40 | -8.74762 | 115.15398 | 30 ft | 12 kts | 219° |
| 2026-04-30 12:40 | -8.74842 | 115.15394 | 29 ft | 13 kts | 176° |
| 2026-04-30 12:40 | -8.74897 | 115.15435 | 29 ft | 10 kts | 97° |
| 2026-04-30 12:41 | -8.74891 | 115.15552 | 29 ft | 43 kts | 87° |
| 2026-04-30 12:41 | -8.74864 | 115.16146 | 29 ft | 122 kts | 88° |
| 2026-04-30 12:41 | -8.74820 | 115.17235 | 68 ft | 178 kts | 88° |
| 2026-04-30 12:41 | -8.74750 | 115.18496 | 733 ft | 184 kts | 88° |
| 2026-04-30 12:42 | -8.74680 | 115.19824 | 1501 ft | 195 kts | 88° |
| 2026-04-30 12:42 | -8.74580 | 115.21250 | 2157 ft | 210 kts | 86° |
| 2026-04-30 12:42 | -8.74478 | 115.22790 | 2574 ft | 229 kts | 88° |
| 2026-04-30 12:42 | -8.74807 | 115.24431 | 2912 ft | 253 kts | 118° |
| 2026-04-30 12:43 | -8.76012 | 115.25768 | 3481 ft | 266 kts | 148° |
| 2026-04-30 12:43 | -8.77728 | 115.26487 | 4302 ft | 271 kts | 165° |
| 2026-04-30 12:43 | -8.79572 | 115.26943 | 5148 ft | 274 kts | 166° |
| 2026-04-30 12:43 | -8.81441 | 115.27376 | 5997 ft | 277 kts | 166° |
| 2026-04-30 12:44 | -8.83326 | 115.27813 | 6764 ft | 280 kts | 166° |
| 2026-04-30 12:44 | -8.85233 | 115.28262 | 7537 ft | 282 kts | 166° |
| 2026-04-30 12:44 | -8.87151 | 115.28718 | 8277 ft | 286 kts | 165° |
| 2026-04-30 12:44 | -8.89103 | 115.29186 | 9037 ft | 289 kts | 165° |
| 2026-04-30 12:45 | -8.91063 | 115.29656 | 9796 ft | 291 kts | 165° |
| 2026-04-30 12:45 | -8.93051 | 115.30133 | 10365 ft | 300 kts | 165° |
| 2026-04-30 12:45 | -8.95165 | 115.30641 | 10556 ft | 322 kts | 165° |
| 2026-04-30 12:45 | -8.97411 | 115.31180 | 10765 ft | 341 kts | 165° |
| 2026-04-30 12:46 | -8.99745 | 115.31737 | 11291 ft | 346 kts | 165° |
| 2026-04-30 12:46 | -9.02100 | 115.32297 | 11937 ft | 349 kts | 165° |
| 2026-04-30 12:46 | -9.04482 | 115.32864 | 12557 ft | 352 kts | 165° |
| 2026-04-30 12:46 | -9.06878 | 115.33434 | 13164 ft | 356 kts | 165° |
| 2026-04-30 12:47 | -9.09279 | 115.34007 | 13761 ft | 359 kts | 165° |
| 2026-04-30 12:47 | -9.11717 | 115.34588 | 14265 ft | 362 kts | 165° |
| 2026-04-30 12:47 | -9.14175 | 115.35174 | 14804 ft | 365 kts | 165° |
| 2026-04-30 12:47 | -9.16693 | 115.35775 | 15330 ft | 368 kts | 165° |
| 2026-04-30 12:48 | -9.18346 | 115.36170 | 15672 ft | 370 kts | 165° |
| 2026-04-30 12:48 | -9.21690 | 115.36967 | 16319 ft | 374 kts | 165° |
| 2026-04-30 12:48 | -9.24237 | 115.37575 | 16800 ft | 377 kts | 165° |
| 2026-04-30 12:48 | -9.25969 | 115.37989 | 17118 ft | 379 kts | 165° |
| 2026-04-30 12:49 | -9.28541 | 115.38603 | 17599 ft | 382 kts | 165° |
| 2026-04-30 12:49 | -9.31144 | 115.39224 | 18052 ft | 385 kts | 165° |
| 2026-04-30 12:49 | -9.34616 | 115.40053 | 18601 ft | 389 kts | 165° |
| 2026-04-30 12:49 | -9.36370 | 115.40472 | 18868 ft | 390 kts | 165° |
| 2026-04-30 12:50 | -9.39019 | 115.41104 | 19272 ft | 393 kts | 165° |
| 2026-04-30 12:50 | -9.41686 | 115.41742 | 19673 ft | 395 kts | 165° |
| 2026-04-30 12:50 | -9.44367 | 115.42382 | 20070 ft | 397 kts | 165° |
| 2026-04-30 12:50 | -9.47071 | 115.43028 | 20463 ft | 400 kts | 165° |
| 2026-04-30 12:51 | -9.49784 | 115.43676 | 20852 ft | 402 kts | 165° |
| 2026-04-30 12:51 | -9.52518 | 115.44329 | 21227 ft | 405 kts | 165° |
| 2026-04-30 12:51 | -9.55258 | 115.44984 | 21609 ft | 407 kts | 165° |
| 2026-04-30 12:51 | -9.58031 | 115.45647 | 21983 ft | 409 kts | 165° |
| 2026-04-30 12:52 | -9.60811 | 115.46311 | 22338 ft | 412 kts | 165° |
| 2026-04-30 12:52 | -9.63611 | 115.46981 | 22712 ft | 414 kts | 165° |
| 2026-04-30 12:52 | -9.66423 | 115.47653 | 23074 ft | 416 kts | 165° |
| 2026-04-30 12:52 | -9.69251 | 115.48329 | 23430 ft | 419 kts | 165° |
| 2026-04-30 12:53 | -9.72094 | 115.49009 | 23735 ft | 421 kts | 165° |
| 2026-04-30 12:53 | -9.74948 | 115.49692 | 24060 ft | 422 kts | 165° |
| 2026-04-30 12:53 | -9.77810 | 115.50377 | 24360 ft | 423 kts | 165° |
| 2026-04-30 12:53 | -9.80692 | 115.51067 | 24663 ft | 425 kts | 165° |
| 2026-04-30 12:54 | -9.83571 | 115.51757 | 24966 ft | 426 kts | 165° |
| 2026-04-30 12:54 | -9.86462 | 115.52450 | 25250 ft | 428 kts | 166° |
| 2026-04-30 12:54 | -9.89366 | 115.53146 | 25522 ft | 429 kts | 166° |
| 2026-04-30 12:54 | -9.92285 | 115.53847 | 25782 ft | 431 kts | 166° |
| 2026-04-30 12:55 | -9.95172 | 115.54539 | 26059 ft | 433 kts | 166° |
| 2026-04-30 12:55 | -9.98105 | 115.55242 | 26308 ft | 435 kts | 166° |
| 2026-04-30 12:55 | -10.01055 | 115.55949 | 26581 ft | 436 kts | 166° |
| 2026-04-30 12:55 | -10.04009 | 115.56657 | 26833 ft | 437 kts | 166° |
| 2026-04-30 12:56 | -10.06980 | 115.57369 | 27070 ft | 439 kts | 166° |
| 2026-04-30 12:56 | -10.09959 | 115.58084 | 27311 ft | 440 kts | 167° |
| 2026-04-30 12:56 | -10.12949 | 115.58800 | 27560 ft | 442 kts | 167° |
| 2026-04-30 12:56 | -10.15946 | 115.59519 | 27789 ft | 443 kts | 167° |
| 2026-04-30 12:57 | -10.18954 | 115.60240 | 28018 ft | 444 kts | 167° |
| 2026-04-30 12:57 | -10.21970 | 115.60964 | 28256 ft | 445 kts | 167° |
| 2026-04-30 12:57 | -10.24987 | 115.61688 | 28471 ft | 447 kts | 167° |
| 2026-04-30 12:57 | -10.28020 | 115.62416 | 28675 ft | 448 kts | 167° |
| 2026-04-30 12:58 | -10.31060 | 115.63146 | 28897 ft | 450 kts | 167° |
| 2026-04-30 12:58 | -10.34106 | 115.63877 | 29104 ft | 451 kts | 167° |
| 2026-04-30 12:58 | -10.37164 | 115.64611 | 29267 ft | 453 kts | 167° |
| 2026-04-30 12:58 | -10.40245 | 115.65350 | 29396 ft | 456 kts | 167° |
| 2026-04-30 12:59 | -10.43341 | 115.66094 | 29528 ft | 458 kts | 167° |
| 2026-04-30 12:59 | -10.46418 | 115.66833 | 29665 ft | 461 kts | 167° |
| 2026-04-30 12:59 | -10.49548 | 115.67585 | 29799 ft | 463 kts | 167° |
| 2026-04-30 12:59 | -10.52691 | 115.68340 | 29927 ft | 466 kts | 168° |
| 2026-04-30 13:00 | -10.55847 | 115.69098 | 30058 ft | 468 kts | 168° |
| 2026-04-30 13:00 | -10.59023 | 115.69862 | 30172 ft | 470 kts | 168° |
| 2026-04-30 13:00 | -10.62213 | 115.70629 | 30284 ft | 472 kts | 168° |
| 2026-04-30 13:00 | -10.65417 | 115.71399 | 30402 ft | 474 kts | 168° |
| 2026-04-30 13:01 | -10.68632 | 115.72172 | 30510 ft | 476 kts | 168° |
| 2026-04-30 13:01 | -10.71864 | 115.72950 | 30623 ft | 478 kts | 168° |
| 2026-04-30 13:01 | -10.75110 | 115.73731 | 30739 ft | 479 kts | 168° |
| 2026-04-30 13:01 | -10.78359 | 115.74513 | 30860 ft | 481 kts | 168° |
| 2026-04-30 13:02 | -10.81615 | 115.75297 | 30976 ft | 482 kts | 168° |
| 2026-04-30 13:02 | -10.84885 | 115.76084 | 31089 ft | 483 kts | 168° |
| 2026-04-30 13:02 | -10.88155 | 115.76872 | 31204 ft | 483 kts | 168° |
| 2026-04-30 13:02 | -10.91434 | 115.77662 | 31324 ft | 484 kts | 168° |
| 2026-04-30 13:03 | -10.94711 | 115.78452 | 31442 ft | 484 kts | 168° |
| 2026-04-30 13:03 | -10.97992 | 115.79243 | 31558 ft | 485 kts | 168° |
| 2026-04-30 13:03 | -11.01278 | 115.80035 | 31678 ft | 485 kts | 168° |
| 2026-04-30 13:03 | -11.04556 | 115.80826 | 31799 ft | 485 kts | 168° |
| 2026-04-30 13:04 | -11.07842 | 115.81619 | 31907 ft | 485 kts | 168° |
| 2026-04-30 13:04 | -11.11118 | 115.82409 | 32039 ft | 485 kts | 168° |
| 2026-04-30 13:04 | -11.14359 | 115.83191 | 32152 ft | 485 kts | 168° |
| 2026-04-30 13:04 | -11.17636 | 115.84025 | 32275 ft | 485 kts | 166° |
| 2026-04-30 13:05 | -11.20870 | 115.85005 | 32396 ft | 485 kts | 165° |
| 2026-04-30 13:05 | -11.24103 | 115.86002 | 32513 ft | 485 kts | 165° |
| 2026-04-30 13:05 | -11.27339 | 115.86994 | 32640 ft | 485 kts | 165° |
| 2026-04-30 13:06 | -11.33774 | 115.88965 | 32887 ft | 485 kts | 165° |
| 2026-04-30 13:06 | -11.37005 | 115.89955 | 33013 ft | 484 kts | 165° |
| 2026-04-30 13:06 | -11.40230 | 115.90945 | 33137 ft | 484 kts | 165° |
| 2026-04-30 13:06 | -11.43466 | 115.91938 | 33263 ft | 484 kts | 166° |
| 2026-04-30 13:07 | -11.46689 | 115.92927 | 33389 ft | 484 kts | 166° |
| 2026-04-30 13:07 | -11.49912 | 115.93917 | 33513 ft | 484 kts | 166° |
| 2026-04-30 13:07 | -11.53134 | 115.94907 | 33640 ft | 484 kts | 166° |
| 2026-04-30 13:07 | -11.56356 | 115.95897 | 33771 ft | 483 kts | 166° |
| 2026-04-30 13:08 | -11.59518 | 115.96869 | 33899 ft | 483 kts | 166° |
| 2026-04-30 13:08 | -11.62736 | 115.97858 | 34020 ft | 483 kts | 166° |
| 2026-04-30 13:08 | -11.65954 | 115.98848 | 34130 ft | 482 kts | 166° |
| 2026-04-30 13:08 | -11.69165 | 115.99835 | 34233 ft | 482 kts | 166° |
| 2026-04-30 13:09 | -11.72374 | 116.00822 | 34353 ft | 482 kts | 166° |
| 2026-04-30 13:09 | -11.75585 | 116.01810 | 34465 ft | 481 kts | 166° |
| 2026-04-30 13:09 | -11.78793 | 116.02797 | 34581 ft | 481 kts | 166° |
| 2026-04-30 13:09 | -11.81994 | 116.03782 | 34694 ft | 480 kts | 166° |
| 2026-04-30 13:10 | -11.85196 | 116.04769 | 34806 ft | 480 kts | 166° |
| 2026-04-30 13:10 | -11.88391 | 116.05753 | 34922 ft | 479 kts | 166° |
| 2026-04-30 13:10 | -11.91586 | 116.06737 | 34976 ft | 480 kts | 166° |
| 2026-04-30 13:11 | -11.98041 | 116.08584 | 34973 ft | 482 kts | 170° |
| 2026-04-30 13:11 | -12.04621 | 116.09690 | 34973 ft | 482 kts | 177° |
| 2026-04-30 13:12 | -12.11307 | 116.10233 | 34975 ft | 483 kts | 178° |
| 2026-04-30 13:12 | -12.18017 | 116.10774 | 34974 ft | 484 kts | 178° |
| 2026-04-30 13:13 | -12.28087 | 116.11587 | 34977 ft | 484 kts | 178° |
| 2026-04-30 13:14 | -12.38170 | 116.12399 | 34974 ft | 485 kts | 178° |
| 2026-04-30 13:14 | -12.48254 | 116.13211 | 34971 ft | 485 kts | 178° |
| 2026-04-30 13:15 | -12.58338 | 116.14024 | 34983 ft | 484 kts | 178° |
| 2026-04-30 13:16 | -12.65054 | 116.14566 | 34989 ft | 484 kts | 178° |
| 2026-04-30 13:16 | -12.71724 | 116.15104 | 34987 ft | 483 kts | 178° |
| 2026-04-30 13:17 | -12.81785 | 116.15918 | 34983 ft | 483 kts | 178° |
| 2026-04-30 13:18 | -12.91848 | 116.16732 | 34982 ft | 483 kts | 178° |
| 2026-04-30 13:18 | -13.01886 | 116.17544 | 34981 ft | 482 kts | 178° |
| 2026-04-30 13:19 | -13.08533 | 116.18083 | 34994 ft | 482 kts | 178° |
| 2026-04-30 13:19 | -13.15217 | 116.18625 | 34997 ft | 481 kts | 178° |
| 2026-04-30 13:20 | -13.21899 | 116.19167 | 34999 ft | 481 kts | 178° |
| 2026-04-30 13:20 | -13.28578 | 116.19709 | 34989 ft | 481 kts | 178° |
| 2026-04-30 13:21 | -13.35263 | 116.20251 | 34995 ft | 481 kts | 178° |
| 2026-04-30 13:22 | -13.45289 | 116.21066 | 34991 ft | 481 kts | 178° |
| 2026-04-30 13:22 | -13.55320 | 116.21881 | 34985 ft | 482 kts | 178° |
| 2026-04-30 13:23 | -13.65302 | 116.22693 | 34998 ft | 482 kts | 178° |
| 2026-04-30 13:24 | -13.78671 | 116.23781 | 34992 ft | 482 kts | 178° |
| 2026-04-30 13:25 | -13.92041 | 116.24871 | 34997 ft | 482 kts | 178° |
| 2026-04-30 13:26 | -14.08723 | 116.26233 | 35000 ft | 482 kts | 178° |
| 2026-04-30 13:28 | -14.25450 | 116.27600 | 34999 ft | 482 kts | 178° |
| 2026-04-30 13:28 | -14.35497 | 116.28422 | 35003 ft | 482 kts | 178° |
| 2026-04-30 13:29 | -14.48896 | 116.29520 | 35002 ft | 483 kts | 178° |
| 2026-04-30 13:31 | -14.65594 | 116.30890 | 35003 ft | 483 kts | 178° |
| 2026-04-30 13:32 | -14.82340 | 116.32266 | 35007 ft | 483 kts | 178° |
| 2026-04-30 13:33 | -14.95735 | 116.33368 | 35010 ft | 482 kts | 178° |
| 2026-04-30 13:34 | -15.05738 | 116.34192 | 35011 ft | 482 kts | 178° |
| 2026-04-30 13:35 | -15.17990 | 116.35202 | 35013 ft | 482 kts | 178° |
| 2026-04-30 13:36 | -15.31352 | 116.36304 | 35015 ft | 481 kts | 178° |
| 2026-04-30 13:36 | -15.41361 | 116.37131 | 35011 ft | 481 kts | 178° |
| 2026-04-30 13:37 | -15.51370 | 116.37959 | 35015 ft | 480 kts | 178° |
| 2026-04-30 13:38 | -15.61282 | 116.38780 | 35012 ft | 480 kts | 178° |
| 2026-04-30 13:39 | -15.74587 | 116.39884 | 35018 ft | 479 kts | 179° |
| 2026-04-30 13:40 | -15.84558 | 116.40711 | 35018 ft | 479 kts | 179° |
| 2026-04-30 13:40 | -15.91210 | 116.41264 | 35018 ft | 479 kts | 179° |
| 2026-04-30 13:41 | -15.97856 | 116.41817 | 35015 ft | 479 kts | 179° |
| 2026-04-30 13:41 | -16.04492 | 116.42368 | 35017 ft | 478 kts | 179° |
| 2026-04-30 13:42 | -16.11143 | 116.42922 | 35020 ft | 478 kts | 179° |
| 2026-04-30 13:42 | -16.21058 | 116.43748 | 35019 ft | 478 kts | 179° |
| 2026-04-30 13:43 | -16.27690 | 116.44301 | 35021 ft | 478 kts | 179° |
| 2026-04-30 13:43 | -16.34326 | 116.44854 | 35019 ft | 478 kts | 179° |
| 2026-04-30 13:44 | -16.40965 | 116.45409 | 35022 ft | 478 kts | 179° |
| 2026-04-30 13:44 | -16.47582 | 116.45961 | 35022 ft | 477 kts | 179° |
| 2026-04-30 13:45 | -16.57492 | 116.46790 | 35021 ft | 477 kts | 179° |
| 2026-04-30 13:46 | -16.64115 | 116.47344 | 35023 ft | 477 kts | 179° |
| 2026-04-30 13:46 | -16.70775 | 116.47902 | 35023 ft | 477 kts | 179° |
| 2026-04-30 13:47 | -16.77388 | 116.48456 | 35024 ft | 476 kts | 179° |
| 2026-04-30 13:47 | -16.84008 | 116.49012 | 35029 ft | 476 kts | 179° |
| 2026-04-30 13:48 | -16.90584 | 116.49563 | 35028 ft | 476 kts | 179° |
| 2026-04-30 13:48 | -16.97190 | 116.50118 | 35026 ft | 476 kts | 179° |
| 2026-04-30 13:49 | -17.03791 | 116.50673 | 35026 ft | 475 kts | 180° |
| 2026-04-30 13:49 | -17.10355 | 116.51225 | 35028 ft | 475 kts | 180° |
| 2026-04-30 13:50 | -17.16947 | 116.51780 | 35027 ft | 475 kts | 180° |
| 2026-04-30 13:50 | -17.26836 | 116.52613 | 35028 ft | 475 kts | 180° |
| 2026-04-30 13:51 | -17.33434 | 116.53169 | 35030 ft | 475 kts | 180° |
| 2026-04-30 13:51 | -17.39981 | 116.53721 | 35031 ft | 475 kts | 180° |
| 2026-04-30 13:52 | -17.46567 | 116.54277 | 35030 ft | 475 kts | 180° |
| 2026-04-30 13:52 | -17.53173 | 116.54835 | 35031 ft | 475 kts | 180° |
| 2026-04-30 13:53 | -17.59757 | 116.55392 | 35033 ft | 475 kts | 180° |
| 2026-04-30 13:53 | -17.66344 | 116.55949 | 35032 ft | 474 kts | 180° |
| 2026-04-30 13:54 | -17.72894 | 116.56504 | 35034 ft | 474 kts | 180° |
| 2026-04-30 13:54 | -17.79479 | 116.57062 | 35030 ft | 474 kts | 180° |
| 2026-04-30 13:55 | -17.86065 | 116.57620 | 35031 ft | 474 kts | 180° |
| 2026-04-30 13:55 | -17.92645 | 116.58178 | 35033 ft | 474 kts | 180° |
| 2026-04-30 13:56 | -17.99228 | 116.58738 | 35034 ft | 474 kts | 180° |
| 2026-04-30 13:56 | -18.05761 | 116.59293 | 35035 ft | 474 kts | 180° |
| 2026-04-30 13:57 | -18.12344 | 116.59853 | 35032 ft | 474 kts | 180° |
| 2026-04-30 13:57 | -18.18926 | 116.60413 | 35034 ft | 474 kts | 180° |
| 2026-04-30 13:58 | -18.28754 | 116.61251 | 35032 ft | 474 kts | 181° |
| 2026-04-30 13:59 | -18.35330 | 116.61811 | 35036 ft | 474 kts | 181° |
| 2026-04-30 13:59 | -18.41903 | 116.62372 | 35032 ft | 474 kts | 181° |
| 2026-04-30 14:00 | -18.48479 | 116.62934 | 35035 ft | 474 kts | 181° |
| 2026-04-30 14:00 | -18.58338 | 116.63777 | 35036 ft | 474 kts | 181° |
| 2026-04-30 14:01 | -18.64916 | 116.64340 | 35037 ft | 474 kts | 181° |
| 2026-04-30 14:01 | -18.71506 | 116.64904 | 35038 ft | 474 kts | 181° |
| 2026-04-30 14:02 | -18.78056 | 116.65465 | 35034 ft | 475 kts | 181° |
| 2026-04-30 14:02 | -18.84651 | 116.66031 | 35029 ft | 475 kts | 181° |
| 2026-04-30 14:03 | -18.91198 | 116.66593 | 35031 ft | 475 kts | 181° |
| 2026-04-30 14:03 | -18.97799 | 116.67160 | 35033 ft | 475 kts | 181° |
| 2026-04-30 14:04 | -19.04402 | 116.67728 | 35032 ft | 475 kts | 181° |
| 2026-04-30 14:04 | -19.10993 | 116.68295 | 35036 ft | 475 kts | 181° |
| 2026-04-30 14:05 | -19.17586 | 116.68863 | 35038 ft | 476 kts | 181° |
| 2026-04-30 14:05 | -19.24193 | 116.69433 | 35028 ft | 476 kts | 181° |
| 2026-04-30 14:06 | -19.34062 | 116.70284 | 35032 ft | 476 kts | 181° |
| 2026-04-30 14:07 | -19.43977 | 116.71140 | 35031 ft | 476 kts | 181° |
| 2026-04-30 14:08 | -19.53902 | 116.71999 | 35029 ft | 477 kts | 182° |
| 2026-04-30 14:08 | -19.63833 | 116.72859 | 35032 ft | 477 kts | 182° |
| 2026-04-30 14:09 | -19.70410 | 116.73430 | 35026 ft | 477 kts | 182° |
| 2026-04-30 14:10 | -19.80347 | 116.74292 | 35026 ft | 477 kts | 182° |
| 2026-04-30 14:10 | -19.86972 | 116.74867 | 35028 ft | 478 kts | 182° |
| 2026-04-30 14:11 | -19.93601 | 116.75443 | 35025 ft | 478 kts | 182° |
| 2026-04-30 14:11 | -20.00236 | 116.76021 | 35027 ft | 478 kts | 182° |
| 2026-04-30 14:12 | -20.06870 | 116.76599 | 35025 ft | 478 kts | 182° |
| 2026-04-30 14:12 | -20.13516 | 116.77178 | 35026 ft | 479 kts | 182° |
| 2026-04-30 14:13 | -20.20123 | 116.77755 | 35022 ft | 479 kts | 182° |
| 2026-04-30 14:13 | -20.26765 | 116.78334 | 35023 ft | 479 kts | 182° |
| 2026-04-30 14:13 | -20.30084 | 116.78626 | 35198 ft | 475 kts | 182° |
| 2026-04-30 14:14 | -20.33367 | 116.78916 | 35413 ft | 471 kts | 182° |
| 2026-04-30 14:14 | -20.36627 | 116.79201 | 35532 ft | 470 kts | 182° |
| 2026-04-30 14:14 | -20.39881 | 116.79485 | 35655 ft | 469 kts | 183° |
| 2026-04-30 14:14 | -20.43133 | 116.79768 | 35774 ft | 468 kts | 183° |
| 2026-04-30 14:15 | -20.46372 | 116.80051 | 35896 ft | 467 kts | 183° |
| 2026-04-30 14:15 | -20.49610 | 116.80335 | 36021 ft | 466 kts | 183° |
| 2026-04-30 14:15 | -20.52834 | 116.80617 | 36137 ft | 465 kts | 183° |
| 2026-04-30 14:15 | -20.56064 | 116.80900 | 36264 ft | 464 kts | 183° |
| 2026-04-30 14:16 | -20.59278 | 116.81182 | 36386 ft | 463 kts | 183° |
| 2026-04-30 14:16 | -20.62485 | 116.81464 | 36514 ft | 462 kts | 183° |
| 2026-04-30 14:16 | -20.65689 | 116.81745 | 36637 ft | 461 kts | 183° |
| 2026-04-30 14:16 | -20.68882 | 116.82025 | 36762 ft | 460 kts | 183° |
| 2026-04-30 14:17 | -20.72076 | 116.82306 | 36895 ft | 459 kts | 183° |
| 2026-04-30 14:17 | -20.77370 | 116.82771 | 37024 ft | 460 kts | 184° |
| 2026-04-30 14:18 | -20.83778 | 116.83332 | 37021 ft | 463 kts | 184° |
| 2026-04-30 14:18 | -20.93446 | 116.84183 | 37027 ft | 466 kts | 184° |
| 2026-04-30 14:19 | -21.03122 | 116.85038 | 37023 ft | 468 kts | 184° |
| 2026-04-30 14:20 | -21.09609 | 116.85611 | 37031 ft | 468 kts | 184° |
| 2026-04-30 14:20 | -21.19366 | 116.86445 | 37030 ft | 467 kts | 186° |
| 2026-04-30 14:21 | -21.25815 | 116.86502 | 37029 ft | 461 kts | 190° |
| 2026-04-30 14:22 | -21.35451 | 116.86273 | 37038 ft | 462 kts | 190° |
| 2026-04-30 14:22 | -21.45097 | 116.86052 | 37039 ft | 462 kts | 190° |
| 2026-04-30 14:23 | -21.57917 | 116.85752 | 37039 ft | 462 kts | 190° |
| 2026-04-30 14:24 | -21.67553 | 116.85527 | 37045 ft | 462 kts | 190° |
| 2026-04-30 14:25 | -21.80396 | 116.85226 | 37045 ft | 462 kts | 190° |
| 2026-04-30 14:26 | -21.89987 | 116.84999 | 37045 ft | 462 kts | 190° |
| 2026-04-30 14:27 | -21.99581 | 116.84773 | 37046 ft | 462 kts | 191° |
| 2026-04-30 14:27 | -22.05979 | 116.84622 | 37051 ft | 462 kts | 191° |
| 2026-04-30 14:28 | -22.15629 | 116.84395 | 37047 ft | 462 kts | 191° |
| 2026-04-30 14:28 | -22.22058 | 116.84244 | 37046 ft | 463 kts | 191° |
| 2026-04-30 14:29 | -22.34946 | 116.83939 | 37043 ft | 463 kts | 191° |
| 2026-04-30 14:31 | -22.51066 | 116.83558 | 37041 ft | 463 kts | 191° |
| 2026-04-30 14:31 | -22.60735 | 116.83329 | 37031 ft | 463 kts | 191° |
| 2026-04-30 14:32 | -22.70362 | 116.83101 | 37025 ft | 463 kts | 191° |
| 2026-04-30 14:33 | -22.76783 | 116.82948 | 37023 ft | 462 kts | 191° |
| 2026-04-30 14:33 | -22.86429 | 116.82720 | 37015 ft | 462 kts | 192° |
| 2026-04-30 14:34 | -22.92867 | 116.82566 | 37019 ft | 462 kts | 192° |
| 2026-04-30 14:34 | -22.99287 | 116.82412 | 37012 ft | 461 kts | 192° |
| 2026-04-30 14:35 | -23.08903 | 116.82183 | 37010 ft | 461 kts | 192° |
| 2026-04-30 14:36 | -23.15266 | 116.82031 | 37012 ft | 460 kts | 192° |
| 2026-04-30 14:36 | -23.21682 | 116.81877 | 37008 ft | 460 kts | 192° |
| 2026-04-30 14:37 | -23.28079 | 116.81724 | 37007 ft | 460 kts | 192° |
| 2026-04-30 14:37 | -23.34483 | 116.81570 | 37013 ft | 460 kts | 192° |
| 2026-04-30 14:38 | -23.40881 | 116.81417 | 37024 ft | 459 kts | 192° |
| 2026-04-30 14:38 | -23.47234 | 116.81265 | 37017 ft | 459 kts | 192° |
| 2026-04-30 14:39 | -23.50487 | 116.81186 | 37017 ft | 459 kts | 192° |